Zeran (malta) — 9HHJ5 — position and weather

sailwx.info

Track history (hours):
 
Tides and Currents Weather Stations Pressure Air Temp Water Temp Dewpoint Dewpoint Depression Visibility Wind Speed Wind Dir Waves Ship Positions

Zeran (malta)

Last reported at 2014-Jul-27 11:20 UTC. Time now 2014-Jul-31 09:30 UTC.
Position N 40°30' E 014°11'.

Length 148 m; beam 24 m.

Type: Ship (hazmat cat A). MMSI: 249846000.

Date/timePositionNaut miles runAvg speedWind from/ knotsBaromVisibWave heightAir tempDewpointWater temp
2014-Jul-27 11:20N 40°30' E 014°11'911.2
2014-Jul-27 10:33N 40°33' E 013°59'1111.5
2014-Jul-27 09:33N 40°38' E 013°46'26311.0
2014-Jul-26 09:33N 43°32' E 009°21'1212.1
2014-Jul-26 08:33N 43°42' E 009°12'1212.0
2014-Jul-26 07:33N 43°52' E 009°02'1211.1
2014-Jul-26 06:29N 44°03' E 008°58'1011.1
2014-Jul-26 05:33N 44°14' E 008°56'1010.5
2014-Jul-26 04:33N 44°24' E 008°53'0 0.4
2014-Jul-26 03:31N 44°24' E 008°53'0 0.0
2014-Jul-26 02:25N 44°24' E 008°53'0 0.0
2014-Jul-26 01:25N 44°24' E 008°53'0 0.0
2014-Jul-26 00:19N 44°24' E 008°53'0 0.0
2014-Jul-25 23:33N 44°24' E 008°53'0 0.0
2014-Jul-25 22:23N 44°24' E 008°53'0 0.0
2014-Jul-25 21:19N 44°24' E 008°53'0 0.0
2014-Jul-25 20:31N 44°24' E 008°53'0 0.0
2014-Jul-25 19:33N 44°24' E 008°53'0 0.0
2014-Jul-25 18:30N 44°24' E 008°53'0 0.0
2014-Jul-25 17:18N 44°24' E 008°53'0 0.0
2014-Jul-25 16:18N 44°24' E 008°53'0 0.0
2014-Jul-25 15:32N 44°24' E 008°53'0 0.0
2014-Jul-25 14:32N 44°24' E 008°53'0 0.0
2014-Jul-25 13:08N 44°24' E 008°53'0 0.0
2014-Jul-25 12:13N 44°24' E 008°53'0 0.0
2014-Jul-25 11:33N 44°24' E 008°53'1 0.8
2014-Jul-25 10:33N 44°24' E 008°54'5 4.5
2014-Jul-25 09:33N 44°21' E 008°59'1212.6
2014-Jul-25 08:33N 44°09' E 009°05'1313.0
2014-Jul-25 07:33N 43°57' E 009°11'1312.9
2014-Jul-25 06:33N 43°45' E 009°16'1312.7
2014-Jul-25 05:33N 43°33' E 009°23'1412.4
2014-Jul-25 04:26N 43°20' E 009°29'  
2014-Jul-21 04:33N 40°13' E 014°15'19 1.0
2014-Jul-20 09:33N 40°32' E 014°08'1110.8
2014-Jul-20 08:33N 40°35' E 013°54'1111.0
2014-Jul-20 07:33N 40°38' E 013°40'1111.4
2014-Jul-20 06:33N 40°42' E 013°26'21411.3
2014-Jul-19 11:33N 42°55' E 009°40'1111.6
2014-Jul-19 10:33N 43°06' E 009°35'1311.4
2014-Jul-19 09:24N 43°18' E 009°29'1011.7
2014-Jul-19 08:33N 43°27' E 009°24'1211.6
2014-Jul-19 07:33N 43°38' E 009°19'1211.6
2014-Jul-19 06:33N 43°49' E 009°14'1111.2
2014-Jul-19 05:33N 43°59' E 009°07'1111.2
2014-Jul-19 04:33N 44°10' E 009°01'1111.5
2014-Jul-19 03:33N 44°20' E 008°55'5 4.1
2014-Jul-19 02:28N 44°24' E 008°53'0 0.0
2014-Jul-19 01:31N 44°24' E 008°53'0 0.0
2014-Jul-19 00:28N 44°24' E 008°53'0 0.0
2014-Jul-18 23:31N 44°24' E 008°53'0 0.0
2014-Jul-18 22:28N 44°24' E 008°53'0 0.0
2014-Jul-18 21:31N 44°24' E 008°53'0 0.0
2014-Jul-18 20:31N 44°24' E 008°53'0 0.0
2014-Jul-18 19:31N 44°24' E 008°53'0 0.0
2014-Jul-18 18:31N 44°24' E 008°53'0 0.0
2014-Jul-18 17:28N 44°24' E 008°53'0 0.0
2014-Jul-18 16:31N 44°24' E 008°53'0 0.0
2014-Jul-18 15:31N 44°24' E 008°53'0 0.0
2014-Jul-18 14:34N 44°24' E 008°53'0 0.0
2014-Jul-18 13:33N 44°24' E 008°53'0 0.0
2014-Jul-18 12:34N 44°24' E 008°53'0 0.0
2014-Jul-18 11:33N 44°24' E 008°53'0 0.0
2014-Jul-18 10:34N 44°24' E 008°53'4 3.5
2014-Jul-18 09:33N 44°23' E 008°57'9 9.3
2014-Jul-18 08:33N 44°14' E 009°02'1211.9
2014-Jul-18 07:33N 44°03' E 009°07'1211.8
2014-Jul-18 06:33N 43°52' E 009°13'1211.7
2014-Jul-18 05:34N 43°41' E 009°18'1211.6
2014-Jul-18 04:34N 43°30' E 009°23'1111.4
2014-Jul-18 03:33N 43°19' E 009°29'1211.6
2014-Jul-18 02:33N 43°08' E 009°34'1212.3
2014-Jul-18 01:33N 42°56' E 009°39'1211.8
2014-Jul-18 00:33N 42°45' E 009°44'1212.0
2014-Jul-17 23:33N 42°33' E 009°45'1411.9
2014-Jul-17 22:25N 42°20' E 009°47'2812.0
2014-Jul-17 20:05N 41°52' E 009°51'611.7
2014-Jul-17 19:33N 41°46' E 009°52'1211.9
2014-Jul-17 18:31N 41°33' E 009°54'1411.9
2014-Jul-17 17:23N 41°20' E 009°55'3711.3
2014-Jul-17 14:05N 40°43' E 009°54'1212.0
2014-Jul-17 13:06N 40°31' E 009°54'611.4
2014-Jul-17 12:32N 40°25' E 009°54'  
Track history (hours):
 
Tides and Currents Weather Stations Pressure Air Temp Water Temp Dewpoint Dewpoint Depression Visibility Wind Speed Wind Dir Waves Ship Positions

Zeran (malta)

Last reported at 2014-Jul-27 11:20 UTC. Time now 2014-Jul-31 09:30 UTC.
Position N 40°30' E 014°11'.

Length 148 m; beam 24 m.

Type: Ship (hazmat cat A). MMSI: 249846000.

Date/timePositionNaut miles runAvg speedWind from/ knotsBaromVisibWave heightAir tempDewpointWater temp
2014-Jul-27 11:20N 40°30' E 014°11'911.2
2014-Jul-27 10:33N 40°33' E 013°59'1111.5
2014-Jul-27 09:33N 40°38' E 013°46'26311.0
2014-Jul-26 09:33N 43°32' E 009°21'1212.1
2014-Jul-26 08:33N 43°42' E 009°12'1212.0
2014-Jul-26 07:33N 43°52' E 009°02'1211.1
2014-Jul-26 06:29N 44°03' E 008°58'1011.1
2014-Jul-26 05:33N 44°14' E 008°56'1010.5
2014-Jul-26 04:33N 44°24' E 008°53'0 0.4
2014-Jul-26 03:31N 44°24' E 008°53'0 0.0
2014-Jul-26 02:25N 44°24' E 008°53'0 0.0
2014-Jul-26 01:25N 44°24' E 008°53'0 0.0
2014-Jul-26 00:19N 44°24' E 008°53'0 0.0
2014-Jul-25 23:33N 44°24' E 008°53'0 0.0
2014-Jul-25 22:23N 44°24' E 008°53'0 0.0
2014-Jul-25 21:19N 44°24' E 008°53'0 0.0
2014-Jul-25 20:31N 44°24' E 008°53'0 0.0
2014-Jul-25 19:33N 44°24' E 008°53'0 0.0
2014-Jul-25 18:30N 44°24' E 008°53'0 0.0
2014-Jul-25 17:18N 44°24' E 008°53'0 0.0
2014-Jul-25 16:18N 44°24' E 008°53'0 0.0
2014-Jul-25 15:32N 44°24' E 008°53'0 0.0
2014-Jul-25 14:32N 44°24' E 008°53'0 0.0
2014-Jul-25 13:08N 44°24' E 008°53'0 0.0
2014-Jul-25 12:13N 44°24' E 008°53'0 0.0
2014-Jul-25 11:33N 44°24' E 008°53'1 0.8
2014-Jul-25 10:33N 44°24' E 008°54'5 4.5
2014-Jul-25 09:33N 44°21' E 008°59'1212.6
2014-Jul-25 08:33N 44°09' E 009°05'1313.0
2014-Jul-25 07:33N 43°57' E 009°11'1312.9
2014-Jul-25 06:33N 43°45' E 009°16'1312.7
2014-Jul-25 05:33N 43°33' E 009°23'1412.4
2014-Jul-25 04:26N 43°20' E 009°29'  
2014-Jul-21 04:33N 40°13' E 014°15'19 1.0
2014-Jul-20 09:33N 40°32' E 014°08'1110.8
2014-Jul-20 08:33N 40°35' E 013°54'1111.0
2014-Jul-20 07:33N 40°38' E 013°40'1111.4
2014-Jul-20 06:33N 40°42' E 013°26'21411.3
2014-Jul-19 11:33N 42°55' E 009°40'1111.6
2014-Jul-19 10:33N 43°06' E 009°35'1311.4
2014-Jul-19 09:24N 43°18' E 009°29'1011.7
2014-Jul-19 08:33N 43°27' E 009°24'1211.6
2014-Jul-19 07:33N 43°38' E 009°19'1211.6
2014-Jul-19 06:33N 43°49' E 009°14'1111.2
2014-Jul-19 05:33N 43°59' E 009°07'1111.2
2014-Jul-19 04:33N 44°10' E 009°01'1111.5
2014-Jul-19 03:33N 44°20' E 008°55'5 4.1
2014-Jul-19 02:28N 44°24' E 008°53'0 0.0
2014-Jul-19 01:31N 44°24' E 008°53'0 0.0
2014-Jul-19 00:28N 44°24' E 008°53'0 0.0
2014-Jul-18 23:31N 44°24' E 008°53'0 0.0
2014-Jul-18 22:28N 44°24' E 008°53'0 0.0
2014-Jul-18 21:31N 44°24' E 008°53'0 0.0
2014-Jul-18 20:31N 44°24' E 008°53'0 0.0
2014-Jul-18 19:31N 44°24' E 008°53'0 0.0
2014-Jul-18 18:31N 44°24' E 008°53'0 0.0
2014-Jul-18 17:28N 44°24' E 008°53'0 0.0
2014-Jul-18 16:31N 44°24' E 008°53'0 0.0
2014-Jul-18 15:31N 44°24' E 008°53'0 0.0
2014-Jul-18 14:34N 44°24' E 008°53'0 0.0
2014-Jul-18 13:33N 44°24' E 008°53'0 0.0
2014-Jul-18 12:34N 44°24' E 008°53'0 0.0
2014-Jul-18 11:33N 44°24' E 008°53'0 0.0
2014-Jul-18 10:34N 44°24' E 008°53'4 3.5
2014-Jul-18 09:33N 44°23' E 008°57'9 9.3
2014-Jul-18 08:33N 44°14' E 009°02'1211.9
2014-Jul-18 07:33N 44°03' E 009°07'1211.8
2014-Jul-18 06:33N 43°52' E 009°13'1211.7
2014-Jul-18 05:34N 43°41' E 009°18'1211.6
2014-Jul-18 04:34N 43°30' E 009°23'1111.4
2014-Jul-18 03:33N 43°19' E 009°29'1211.6
2014-Jul-18 02:33N 43°08' E 009°34'1212.3
2014-Jul-18 01:33N 42°56' E 009°39'1211.8
2014-Jul-18 00:33N 42°45' E 009°44'1212.0
2014-Jul-17 23:33N 42°33' E 009°45'1411.9
2014-Jul-17 22:25N 42°20' E 009°47'2812.0
2014-Jul-17 20:05N 41°52' E 009°51'611.7
2014-Jul-17 19:33N 41°46' E 009°52'1211.9
2014-Jul-17 18:31N 41°33' E 009°54'1411.9
2014-Jul-17 17:23N 41°20' E 009°55'3711.3
2014-Jul-17 14:05N 40°43' E 009°54'1212.0
2014-Jul-17 13:06N 40°31' E 009°54'611.4
2014-Jul-17 12:32N 40°25' E 009°54'  

Dump ship's entire track history